createdAt,value
2019-06-26T00:01:31.505Z,22.80
2019-06-26T00:04:03.811Z,22.80
2019-06-26T00:06:51.143Z,22.70
2019-06-26T00:09:55.460Z,22.60
2019-06-26T00:12:40.149Z,22.50
2019-06-26T00:15:11.684Z,22.50
2019-06-26T00:17:40.585Z,22.50
2019-06-26T00:20:09.789Z,22.50
2019-06-26T00:22:44.777Z,22.40
2019-06-26T00:25:14.797Z,22.40
2019-06-26T00:27:44.924Z,22.40
2019-06-26T00:30:15.666Z,22.30
2019-06-26T00:32:45.798Z,22.40
2019-06-26T00:35:15.615Z,22.30
2019-06-26T00:37:45.731Z,22.20
2019-06-26T00:40:15.369Z,22.20
2019-06-26T00:42:47.315Z,22.10
2019-06-26T00:45:16.373Z,22.10
2019-06-26T00:47:45.211Z,22.10
2019-06-26T00:50:15.437Z,22.10
2019-06-26T00:52:44.168Z,22.00
2019-06-26T00:55:16.400Z,22.00
2019-06-26T00:57:45.187Z,21.90
2019-06-26T01:00:14.609Z,21.90
2019-06-26T01:02:43.580Z,21.90
2019-06-26T01:05:13.553Z,21.90
2019-06-26T01:07:42.505Z,21.90
2019-06-26T01:10:13.319Z,21.80
2019-06-26T01:12:42.143Z,21.80
2019-06-26T01:15:12.885Z,21.70
2019-06-26T01:17:41.700Z,21.70
2019-06-26T01:20:12.160Z,21.80
2019-06-26T01:22:43.541Z,21.80
2019-06-26T01:25:16.905Z,21.80
2019-06-26T01:27:45.939Z,21.70
2019-06-26T01:30:16.260Z,21.70
2019-06-26T01:32:45.087Z,21.60
2019-06-26T01:35:15.570Z,21.60
2019-06-26T01:37:47.995Z,21.60
2019-06-26T01:40:21.279Z,21.60
2019-06-26T01:42:52.480Z,21.50
2019-06-26T01:45:26.258Z,21.50
2019-06-26T01:48:09.545Z,21.50
2019-06-26T01:50:35.619Z,21.40
2019-06-26T01:53:25.798Z,21.40
2019-06-26T01:55:43.365Z,21.30
2019-06-26T01:58:19.095Z,21.30
2019-06-26T02:03:45.716Z,21.30
2019-06-26T02:06:03.628Z,21.20
2019-06-26T02:08:32.784Z,21.30
2019-06-26T02:11:05.316Z,21.20
2019-06-26T02:13:42.138Z,21.20
2019-06-26T02:16:11.546Z,21.20
2019-06-26T02:18:47.866Z,21.30
2019-06-26T02:21:21.191Z,21.40
2019-06-26T02:23:52.822Z,21.20
2019-06-26T02:26:27.919Z,21.20
2019-06-26T02:28:56.848Z,21.20
2019-06-26T02:31:25.680Z,21.00
2019-06-26T02:33:57.338Z,21.00
2019-06-26T02:36:26.287Z,21.10
2019-06-26T02:38:55.264Z,21.00
2019-06-26T02:41:24.116Z,21.00
2019-06-26T02:43:59.364Z,21.00
2019-06-26T02:46:28.050Z,21.10
2019-06-26T02:48:56.937Z,21.10
2019-06-26T02:51:25.843Z,21.10
2019-06-26T02:53:54.704Z,21.00
2019-06-26T02:56:23.571Z,21.00
2019-06-26T02:58:52.467Z,21.20
2019-06-26T03:01:22.979Z,21.20
2019-06-26T03:03:51.847Z,21.20
2019-06-26T03:06:20.935Z,21.20
2019-06-26T03:08:49.998Z,21.30
2019-06-26T03:11:18.787Z,21.30
2019-06-26T03:13:47.610Z,21.30
2019-06-26T03:16:16.582Z,21.40
2019-06-26T03:18:45.461Z,21.40
2019-06-26T03:21:16.300Z,21.40
2019-06-26T03:23:49.980Z,21.40
2019-06-26T03:26:33.862Z,21.40
2019-06-26T03:28:57.101Z,21.50
2019-06-26T03:31:27.862Z,21.40
2019-06-26T03:34:26.120Z,21.50
2019-06-26T03:36:46.164Z,21.50
2019-06-26T03:39:14.879Z,21.60
2019-06-26T03:41:43.735Z,21.70
2019-06-26T03:44:14.675Z,21.80
2019-06-26T03:46:43.116Z,21.80
2019-06-26T03:49:11.806Z,21.90
2019-06-26T03:51:40.702Z,21.90
2019-06-26T03:54:09.678Z,21.90
2019-06-26T03:57:05.678Z,22.10
2019-06-26T03:59:31.788Z,22.30
2019-06-26T04:02:00.673Z,22.30
2019-06-26T04:04:29.570Z,22.30
2019-06-26T04:06:58.375Z,22.30
2019-06-26T04:09:27.153Z,22.40
2019-06-26T04:11:58.375Z,22.30
2019-06-26T04:14:27.199Z,22.30
2019-06-26T04:16:56.156Z,22.50
2019-06-26T04:19:24.975Z,22.50
2019-06-26T04:21:53.861Z,22.60
2019-06-26T04:24:22.755Z,22.60
2019-06-26T04:26:52.565Z,22.90
2019-06-26T04:29:21.362Z,23.70
2019-06-26T04:31:50.112Z,24.30
2019-06-26T04:34:18.926Z,25.00
2019-06-26T04:36:47.669Z,25.40
2019-06-26T04:39:16.440Z,26.40
2019-06-26T04:41:45.267Z,26.60
2019-06-26T04:44:14.089Z,26.90
2019-06-26T04:46:43.130Z,27.00
2019-06-26T04:49:12.059Z,27.60
2019-06-26T04:51:40.937Z,28.40
2019-06-26T04:54:09.739Z,28.10
2019-06-26T04:56:40.084Z,28.60
2019-06-26T04:59:08.813Z,28.30
2019-06-26T05:01:37.647Z,27.30
2019-06-26T05:04:06.399Z,27.60
2019-06-26T05:06:41.738Z,28.30
2019-06-26T05:09:10.515Z,28.40
2019-06-26T05:11:40.358Z,29.50
2019-06-26T05:14:09.261Z,28.80
2019-06-26T05:16:38.005Z,28.90
2019-06-26T05:19:06.719Z,28.60
2019-06-26T05:21:35.594Z,28.80
2019-06-26T05:24:04.377Z,29.10
2019-06-26T05:26:33.221Z,28.80
2019-06-26T05:29:02.188Z,28.80
2019-06-26T05:31:31.043Z,27.90
2019-06-26T05:33:59.818Z,28.50
2019-06-26T05:36:28.875Z,29.70
2019-06-26T05:38:57.619Z,30.40
2019-06-26T05:41:26.547Z,30.90
2019-06-26T05:43:55.447Z,31.40
2019-06-26T05:46:31.141Z,30.80
2019-06-26T05:48:54.766Z,30.70
2019-06-26T05:51:23.639Z,31.10
2019-06-26T05:53:52.443Z,31.00
2019-06-26T05:56:21.390Z,31.00
2019-06-26T05:58:50.181Z,31.30
2019-06-26T06:01:19.086Z,30.30
2019-06-26T06:03:48.314Z,30.30
2019-06-26T06:06:17.990Z,29.20
2019-06-26T06:08:47.192Z,29.80
2019-06-26T06:11:16.111Z,29.90
2019-06-26T06:13:47.234Z,29.30
2019-06-26T06:16:16.250Z,28.90
2019-06-26T06:18:45.412Z,29.00
2019-06-26T06:21:14.427Z,29.70
2019-06-26T06:23:44.974Z,30.10
2019-06-26T06:26:13.887Z,29.80
2019-06-26T06:28:42.804Z,29.80
2019-06-26T06:31:11.818Z,29.20
2019-06-26T06:33:40.630Z,29.70
2019-06-26T06:36:09.887Z,30.40
2019-06-26T06:38:44.499Z,31.40
2019-06-26T06:41:13.656Z,30.80
2019-06-26T06:43:42.553Z,30.10
2019-06-26T06:46:12.646Z,30.00
2019-06-26T06:48:41.844Z,30.60
2019-06-26T06:51:10.859Z,30.20
2019-06-26T06:53:40.380Z,30.50
2019-06-26T06:56:10.561Z,31.20
2019-06-26T06:58:39.439Z,31.70
2019-06-26T07:01:08.434Z,30.20
2019-06-26T07:03:37.637Z,31.00
2019-06-26T07:06:06.518Z,32.70
2019-06-26T07:08:53.691Z,32.80
2019-06-26T07:11:22.574Z,33.40
2019-06-26T07:13:51.736Z,33.80
2019-06-26T07:16:20.587Z,34.30
2019-06-26T07:18:49.237Z,34.10
2019-06-26T07:21:18.029Z,34.00
2019-06-26T07:23:47.315Z,33.90
2019-06-26T07:26:16.637Z,34.60
2019-06-26T07:28:45.567Z,33.50
2019-06-26T07:31:16.944Z,33.70
2019-06-26T07:33:45.783Z,33.50
2019-06-26T07:36:14.894Z,32.50
2019-06-26T07:38:43.698Z,34.10
2019-06-26T07:41:12.696Z,35.10
2019-06-26T07:43:41.749Z,33.30
2019-06-26T07:46:10.649Z,33.10
2019-06-26T07:48:41.183Z,33.60
2019-06-26T07:51:13.520Z,34.70
2019-06-26T07:56:59.778Z,33.90
2019-06-26T08:02:16.891Z,34.00
2019-06-26T08:05:11.903Z,34.20
2019-06-26T08:07:45.382Z,34.80
2019-06-26T08:10:29.123Z,34.50
2019-06-26T08:13:11.272Z,32.80
2019-06-26T08:21:28.224Z,32.80
2019-06-26T08:27:02.117Z,33.40
2019-06-26T08:32:59.194Z,32.20
2019-06-26T08:43:58.393Z,33.20
2019-06-26T08:46:24.618Z,33.20
2019-06-26T08:49:15.150Z,33.40
2019-06-26T08:51:44.848Z,33.10
2019-06-26T08:54:04.580Z,33.90
2019-06-26T08:56:36.239Z,34.20
2019-06-26T08:59:06.822Z,34.80
2019-06-26T09:01:40.543Z,34.60
2019-06-26T09:04:12.457Z,34.50
2019-06-26T09:06:45.128Z,34.10
2019-06-26T09:09:14.036Z,33.80
2019-06-26T09:11:50.240Z,34.20
2019-06-26T09:17:16.276Z,34.20
2019-06-26T09:19:49.737Z,33.50
2019-06-26T09:22:15.593Z,34.20
2019-06-26T09:24:50.478Z,34.60
2019-06-26T09:27:15.331Z,34.50
2019-06-26T09:29:46.198Z,34.30
2019-06-26T09:32:25.871Z,33.80
2019-06-26T09:34:58.077Z,33.60
2019-06-26T09:37:27.035Z,33.10
2019-06-26T09:40:16.102Z,33.60
2019-06-26T09:42:34.272Z,33.80
2019-06-26T09:45:08.672Z,34.40
2019-06-26T09:47:37.625Z,34.40
2019-06-26T09:50:08.096Z,33.10
2019-06-26T09:52:36.943Z,33.10
2019-06-26T09:55:09.070Z,33.10
2019-06-26T09:57:42.269Z,33.80
2019-06-26T10:00:16.331Z,34.10
2019-06-26T10:02:44.864Z,34.60
2019-06-26T10:05:14.276Z,35.00
2019-06-26T10:08:02.649Z,35.00
2019-06-26T10:10:27.646Z,34.90
2019-06-26T10:12:54.884Z,34.10
2019-06-26T10:15:23.892Z,33.50
2019-06-26T10:17:52.688Z,33.60
2019-06-26T10:20:21.702Z,33.20
2019-06-26T10:22:50.492Z,33.30
2019-06-26T10:25:20.817Z,33.70
2019-06-26T10:27:49.619Z,33.90
2019-06-26T10:30:19.369Z,33.80
2019-06-26T10:32:51.336Z,33.80
2019-06-26T10:35:19.504Z,34.00
2019-06-26T10:37:48.243Z,34.20
2019-06-26T10:40:27.679Z,34.70
2019-06-26T10:43:06.960Z,34.60
2019-06-26T10:45:36.376Z,34.10
2019-06-26T10:48:05.907Z,34.10
2019-06-26T10:50:47.571Z,34.70
2019-06-26T10:53:05.311Z,33.90
2019-06-26T10:55:34.107Z,33.70
2019-06-26T10:58:03.167Z,34.00
2019-06-26T11:00:32.189Z,34.60
2019-06-26T11:03:01.089Z,34.20
2019-06-26T11:05:29.839Z,34.10
2019-06-26T11:08:00.683Z,34.70
2019-06-26T11:10:29.534Z,34.60
2019-06-26T11:12:58.308Z,35.10
2019-06-26T11:15:28.572Z,35.30
2019-06-26T11:17:57.461Z,34.60
2019-06-26T11:20:50.615Z,33.90
2019-06-26T11:23:00.880Z,34.00
2019-06-26T11:25:30.920Z,34.30
2019-06-26T11:28:01.523Z,34.20
2019-06-26T11:30:30.369Z,34.50
2019-06-26T11:32:59.383Z,34.40
2019-06-26T11:35:32.164Z,34.60
2019-06-26T11:38:02.110Z,34.50
2019-06-26T11:40:30.963Z,34.90
2019-06-26T11:42:59.891Z,35.10
2019-06-26T11:45:28.953Z,34.80
2019-06-26T11:48:01.987Z,34.50
2019-06-26T11:50:32.471Z,34.50
2019-06-26T11:53:01.533Z,34.60
2019-06-26T11:55:30.519Z,35.00
2019-06-26T11:57:59.346Z,34.80
2019-06-26T12:00:28.397Z,34.70
2019-06-26T12:02:57.685Z,34.30
2019-06-26T12:05:31.349Z,34.60
2019-06-26T12:08:00.244Z,34.20
2019-06-26T12:10:30.805Z,34.40
2019-06-26T12:12:59.711Z,35.00
2019-06-26T12:15:28.589Z,34.50
2019-06-26T12:17:58.991Z,34.90
2019-06-26T12:20:30.149Z,35.20
2019-06-26T12:23:04.409Z,35.30
2019-06-26T12:25:42.467Z,35.60
2019-06-26T12:28:13.017Z,34.70
2019-06-26T12:30:41.968Z,34.90
2019-06-26T12:33:12.402Z,35.00
2019-06-26T12:35:42.766Z,35.20
2019-06-26T12:38:15.220Z,35.30
2019-06-26T12:41:03.277Z,34.70
2019-06-26T12:43:39.606Z,34.70
2019-06-26T12:49:02.802Z,34.50
2019-06-26T12:51:35.616Z,34.10
2019-06-26T12:54:03.643Z,34.90
2019-06-26T12:56:34.779Z,35.20
2019-06-26T12:59:05.439Z,35.70
2019-06-26T13:01:35.762Z,35.50
2019-06-26T13:04:04.845Z,35.50
2019-06-26T13:06:59.079Z,35.20
2019-06-26T13:09:20.568Z,34.70
2019-06-26T13:11:58.392Z,34.40
2019-06-26T13:14:30.884Z,34.80
2019-06-26T13:17:01.404Z,35.10
2019-06-26T13:19:30.291Z,35.40
2019-06-26T13:22:02.912Z,35.30
2019-06-26T13:24:34.313Z,35.20
2019-06-26T13:27:14.223Z,35.30
2019-06-26T13:29:43.570Z,35.20
2019-06-26T13:32:12.423Z,35.30
2019-06-26T13:34:41.347Z,35.90
2019-06-26T13:37:10.287Z,35.10
2019-06-26T13:39:39.208Z,35.30
2019-06-26T13:42:33.864Z,35.20
2019-06-26T13:45:15.821Z,35.30
2019-06-26T13:47:59.893Z,35.60
2019-06-26T13:50:27.348Z,35.10
2019-06-26T13:53:00.629Z,35.60
2019-06-26T13:58:24.082Z,35.50
2019-06-26T14:00:56.372Z,35.70
2019-06-26T14:03:29.345Z,35.30
2019-06-26T14:06:01.996Z,35.40
2019-06-26T14:08:37.068Z,35.30
2019-06-26T14:11:01.673Z,35.60
2019-06-26T14:13:30.598Z,35.50
2019-06-26T14:16:02.267Z,35.60
2019-06-26T14:18:34.081Z,36.10
2019-06-26T14:21:03.057Z,36.30
2019-06-26T14:23:43.812Z,36.60
2019-06-26T14:26:09.980Z,36.80
2019-06-26T14:28:38.978Z,36.80
2019-06-26T14:31:16.407Z,36.70
2019-06-26T14:33:46.828Z,36.60
2019-06-26T14:36:23.473Z,35.70
2019-06-26T14:38:52.958Z,35.50
2019-06-26T14:41:23.493Z,35.60
2019-06-26T14:43:52.395Z,35.80
2019-06-26T14:46:25.087Z,36.00
2019-06-26T14:55:34.348Z,35.80
2019-06-26T14:58:25.327Z,35.60
2019-06-26T15:02:09.593Z,35.60
2019-06-26T15:04:31.598Z,35.90
2019-06-26T15:09:39.892Z,35.40
2019-06-26T15:12:48.274Z,35.10
2019-06-26T15:15:54.846Z,35.50
2019-06-26T15:19:01.905Z,35.90
2019-06-26T15:21:57.496Z,35.80
2019-06-26T15:27:55.437Z,35.50
2019-06-26T15:33:49.285Z,36.10
2019-06-26T15:36:43.276Z,36.10
2019-06-26T15:39:23.347Z,36.10
2019-06-26T15:42:32.187Z,35.80
2019-06-26T15:45:09.022Z,35.80
2019-06-26T15:48:30.606Z,35.40
2019-06-26T15:57:01.211Z,35.90
2019-06-26T15:59:35.921Z,36.00
2019-06-26T16:02:13.423Z,35.00
2019-06-26T16:04:51.711Z,35.00
2019-06-26T16:07:33.410Z,35.10
2019-06-26T16:10:12.350Z,35.00
2019-06-26T16:12:41.247Z,34.70
2019-06-26T16:15:20.113Z,34.60
2019-06-26T16:18:00.352Z,34.60
2019-06-26T16:20:28.386Z,34.40
2019-06-26T16:23:17.021Z,34.70
2019-06-26T16:26:17.842Z,34.80
2019-06-26T16:28:56.101Z,34.70
2019-06-26T16:32:29.886Z,35.00
2019-06-26T16:34:31.202Z,35.20
2019-06-26T16:36:45.912Z,34.90
2019-06-26T16:39:14.782Z,34.90
2019-06-26T16:41:48.767Z,35.00
2019-06-26T16:44:14.030Z,34.70
2019-06-26T16:46:48.686Z,34.80
2019-06-26T16:49:17.093Z,34.50
2019-06-26T16:51:46.040Z,34.60
2019-06-26T16:54:15.596Z,35.00
2019-06-26T16:56:44.518Z,35.10
2019-06-26T16:59:13.438Z,35.20
2019-06-26T17:01:42.201Z,35.20
2019-06-26T17:04:11.148Z,35.00
2019-06-26T17:06:39.961Z,34.90
2019-06-26T17:09:09.548Z,34.90
2019-06-26T17:11:41.925Z,34.80
2019-06-26T17:14:10.548Z,34.80
2019-06-26T17:16:39.253Z,34.80
2019-06-26T17:19:08.289Z,34.80
2019-06-26T17:21:37.273Z,34.70
2019-06-26T17:24:06.220Z,34.60
2019-06-26T17:26:35.081Z,34.50
2019-06-26T17:29:03.907Z,34.50
2019-06-26T17:31:32.733Z,34.40
2019-06-26T17:34:01.475Z,34.40
2019-06-26T17:36:30.438Z,34.30
2019-06-26T17:38:59.332Z,34.30
2019-06-26T17:41:35.861Z,34.20
2019-06-26T17:46:47.181Z,34.00
2019-06-26T17:47:30.891Z,34.20
2019-06-26T17:49:25.465Z,34.00
2019-06-26T17:51:49.826Z,33.90
2019-06-26T17:54:18.651Z,33.90
2019-06-26T17:56:47.556Z,33.80
2019-06-26T17:59:16.333Z,33.70
2019-06-26T18:05:09.535Z,33.60
2019-06-26T18:07:38.511Z,33.50
2019-06-26T18:13:00.152Z,33.30
2019-06-26T18:15:29.143Z,33.10
2019-06-26T18:17:58.003Z,33.10
2019-06-26T18:21:19.659Z,33.00
2019-06-26T18:23:07.457Z,32.90
2019-06-26T18:25:34.138Z,32.70
2019-06-26T18:28:05.732Z,32.60
2019-06-26T18:30:34.700Z,32.60
2019-06-26T18:33:03.656Z,32.40
2019-06-26T18:35:34.019Z,32.30
2019-06-26T18:38:02.877Z,32.10
2019-06-26T18:40:31.758Z,32.00
2019-06-26T18:43:03.610Z,31.90
2019-06-26T18:45:35.069Z,31.90
2019-06-26T18:48:04.736Z,31.80
2019-06-26T18:50:33.674Z,31.60
2019-06-26T18:53:02.503Z,31.50
2019-06-26T18:55:32.453Z,31.40
2019-06-26T18:58:02.609Z,31.40
2019-06-26T19:00:32.756Z,31.30
2019-06-26T19:06:51.425Z,31.00
2019-06-26T19:13:28.874Z,30.80
2019-06-26T19:50:02.677Z,30.00
2019-06-26T19:59:08.054Z,30.00
2019-06-26T20:02:07.449Z,29.90
2019-06-26T20:11:12.108Z,29.90
2019-06-26T20:13:52.128Z,29.80
2019-06-26T20:19:25.698Z,29.70
2019-06-26T20:29:12.023Z,29.60
2019-06-26T20:32:10.666Z,29.50
2019-06-26T21:00:33.887Z,29.20
2019-06-26T21:27:57.342Z,29.00
2019-06-26T21:51:05.727Z,28.60
2019-06-26T22:21:17.496Z,28.10
2019-06-26T22:43:05.627Z,28.10
2019-06-26T22:45:34.469Z,28.00
2019-06-26T22:48:05.234Z,28.00
2019-06-26T22:50:38.474Z,27.90
2019-06-26T22:56:47.344Z,27.60
2019-06-26T23:12:12.000Z,26.90
